createdAt,value
2022-10-08T00:00:06.203Z,0.00
2022-10-08T00:01:06.214Z,0.00
2022-10-08T00:02:06.326Z,0.00
2022-10-08T00:03:06.179Z,0.00
2022-10-08T00:04:06.203Z,0.00
2022-10-08T00:05:06.158Z,0.00
2022-10-08T00:06:06.136Z,0.00
2022-10-08T00:07:06.134Z,0.00
2022-10-08T00:08:06.130Z,0.00
2022-10-08T00:09:06.113Z,0.00
2022-10-08T00:10:06.094Z,0.00
2022-10-08T00:11:06.090Z,0.00
2022-10-08T00:12:06.070Z,0.00
2022-10-08T00:13:06.073Z,0.00
2022-10-08T00:14:06.086Z,0.00
2022-10-08T00:15:06.055Z,0.00
2022-10-08T00:16:06.098Z,0.00
2022-10-08T00:17:06.026Z,0.00
2022-10-08T00:18:06.010Z,0.00
2022-10-08T00:19:05.997Z,0.00
2022-10-08T00:20:06.002Z,0.00
2022-10-08T00:21:05.983Z,0.00
2022-10-08T00:22:05.977Z,0.00
2022-10-08T00:23:05.973Z,0.00
2022-10-08T00:24:05.948Z,0.00
2022-10-08T00:25:05.942Z,0.00
2022-10-08T00:26:05.961Z,0.00
2022-10-08T00:27:05.915Z,0.00
2022-10-08T00:28:05.987Z,0.00
2022-10-08T00:29:05.897Z,0.00
2022-10-08T00:30:05.891Z,0.00
2022-10-08T00:31:05.948Z,0.00
2022-10-08T00:32:05.867Z,0.00
2022-10-08T00:33:05.847Z,0.00
2022-10-08T00:34:05.853Z,0.00
2022-10-08T00:35:05.830Z,0.00
2022-10-08T00:36:05.826Z,0.00
2022-10-08T00:37:05.860Z,0.00
2022-10-08T00:38:05.809Z,0.00
2022-10-08T00:39:05.783Z,0.00
2022-10-08T00:40:05.780Z,0.00
2022-10-08T00:41:05.770Z,0.00
2022-10-08T00:42:05.778Z,0.00
2022-10-08T00:43:05.764Z,0.00
2022-10-08T00:44:05.745Z,0.00
2022-10-08T00:45:05.724Z,0.00
2022-10-08T00:46:05.803Z,0.00
2022-10-08T00:47:05.704Z,0.00
2022-10-08T00:48:05.712Z,0.00
2022-10-08T00:49:05.691Z,0.00
2022-10-08T00:50:05.667Z,0.00
2022-10-08T00:51:05.670Z,0.00
2022-10-08T00:52:05.645Z,0.00
2022-10-08T00:53:05.640Z,0.00
2022-10-08T00:54:05.635Z,0.00
2022-10-08T00:55:05.626Z,0.00
2022-10-08T00:56:05.621Z,0.00
2022-10-08T00:57:05.586Z,0.00
2022-10-08T00:58:05.579Z,0.00
2022-10-08T00:59:05.569Z,0.00
2022-10-08T01:00:05.576Z,0.00
2022-10-08T01:01:05.604Z,0.00
2022-10-08T01:02:05.561Z,0.00
2022-10-08T01:03:05.515Z,0.00
2022-10-08T01:04:05.514Z,0.00
2022-10-08T01:05:05.497Z,0.00
2022-10-08T01:06:05.537Z,0.00
2022-10-08T01:07:05.489Z,0.00
2022-10-08T01:08:05.479Z,0.00
2022-10-08T01:09:05.453Z,0.00
2022-10-08T05:01:04.904Z,0.00
2022-10-08T05:02:06.014Z,0.00
2022-10-08T05:03:05.934Z,0.00
2022-10-08T05:04:05.878Z,0.00
2022-10-08T05:05:05.858Z,0.00
2022-10-08T05:06:05.866Z,0.00
2022-10-08T05:07:05.835Z,0.00
2022-10-08T05:08:05.834Z,0.00
2022-10-08T05:09:05.807Z,0.00
2022-10-08T05:10:05.808Z,0.00
2022-10-08T05:11:05.793Z,0.00
2022-10-08T05:12:05.808Z,0.00
2022-10-08T05:13:05.789Z,0.00
2022-10-08T05:14:05.763Z,0.00
2022-10-08T05:15:05.702Z,1.00
2022-10-08T05:16:05.824Z,1.00
2022-10-08T05:17:12.863Z,1.00
2022-10-08T05:18:05.671Z,2.00
2022-10-08T05:19:05.652Z,2.00
2022-10-08T05:20:05.651Z,2.00
2022-10-08T05:21:05.634Z,3.00
2022-10-08T05:22:05.641Z,5.00
2022-10-08T05:23:05.607Z,5.00
2022-10-08T05:24:05.600Z,6.00
2022-10-08T05:25:05.590Z,8.00
2022-10-08T05:26:05.584Z,7.00
2022-10-08T05:27:05.584Z,10.00
2022-10-08T05:28:05.589Z,11.00
2022-10-08T05:29:05.543Z,13.00
2022-10-08T05:30:05.533Z,15.00
2022-10-08T05:31:05.572Z,18.00
2022-10-08T05:32:05.520Z,18.00
2022-10-08T05:33:05.869Z,21.00
2022-10-08T05:34:05.493Z,24.00
2022-10-08T05:35:05.476Z,26.00
2022-10-08T05:36:10.570Z,29.00
2022-10-08T05:37:05.457Z,33.00
2022-10-08T05:38:05.490Z,37.00
2022-10-08T05:39:05.435Z,37.00
2022-10-08T05:40:05.458Z,40.00
2022-10-08T05:41:05.418Z,44.00
2022-10-08T05:42:05.404Z,46.00
2022-10-08T05:43:06.329Z,50.00
2022-10-08T05:44:05.398Z,51.00
2022-10-08T05:45:05.374Z,55.00
2022-10-08T05:46:05.442Z,58.00
2022-10-08T05:47:05.356Z,59.00
2022-10-08T05:48:05.350Z,63.00
2022-10-08T05:49:05.343Z,69.00
2022-10-08T05:50:05.336Z,69.00
2022-10-08T05:51:05.311Z,73.00
2022-10-08T05:52:05.316Z,77.00
2022-10-08T05:53:09.191Z,79.00
2022-10-08T05:54:05.276Z,86.00
2022-10-08T05:55:05.269Z,89.00
2022-10-08T05:56:05.270Z,91.00
2022-10-08T05:57:05.254Z,92.00
2022-10-08T05:58:05.243Z,94.00
2022-10-08T05:59:05.236Z,99.00
2022-10-08T06:00:05.219Z,102.00
2022-10-08T06:01:05.204Z,105.00
2022-10-08T06:02:05.190Z,107.00
2022-10-08T06:03:05.283Z,113.00
2022-10-08T06:04:08.789Z,117.00
2022-10-08T06:05:05.268Z,125.00
2022-10-08T06:06:05.155Z,129.00
2022-10-08T06:07:05.140Z,132.00
2022-10-08T06:08:05.134Z,138.00
2022-10-08T06:09:05.137Z,142.00
2022-10-08T06:10:05.116Z,145.00
2022-10-08T06:11:05.124Z,147.00
2022-10-08T06:12:05.085Z,147.00
2022-10-08T06:13:05.090Z,149.00
2022-10-08T06:14:05.087Z,151.00
2022-10-08T06:15:05.048Z,157.00
2022-10-08T06:16:05.090Z,163.00
2022-10-08T06:17:05.058Z,168.00
2022-10-08T06:18:05.043Z,169.00
2022-10-08T06:19:05.091Z,173.00
2022-10-08T06:20:05.011Z,179.00
2022-10-08T06:21:05.006Z,187.00
2022-10-08T06:22:05.038Z,193.00
2022-10-08T06:23:04.984Z,203.00
2022-10-08T06:24:04.961Z,217.00
2022-10-08T06:25:04.945Z,232.00
2022-10-08T06:26:04.941Z,244.00
2022-10-08T06:27:04.923Z,253.00
2022-10-08T06:28:04.967Z,255.00
2022-10-08T06:29:04.912Z,257.00
2022-10-08T06:30:04.896Z,260.00
2022-10-08T06:31:04.899Z,262.00
2022-10-08T06:32:04.878Z,269.00
2022-10-08T06:33:04.877Z,273.00
2022-10-08T06:34:05.068Z,278.00
2022-10-08T06:35:04.837Z,280.00
2022-10-08T06:36:04.833Z,283.00
2022-10-08T06:37:04.818Z,283.00
2022-10-08T06:38:04.837Z,287.00
2022-10-08T06:39:04.796Z,287.00
2022-10-08T06:40:04.806Z,282.00
2022-10-08T06:41:04.818Z,280.00
2022-10-08T06:42:04.775Z,281.00
2022-10-08T06:43:04.757Z,283.00
2022-10-08T06:44:04.745Z,283.00
2022-10-08T06:45:04.971Z,286.00
2022-10-08T06:46:04.736Z,278.00
2022-10-08T06:47:04.790Z,284.00
2022-10-08T06:48:04.719Z,289.00
2022-10-08T06:49:04.691Z,297.00
2022-10-08T06:50:04.700Z,302.00
2022-10-08T06:51:04.667Z,305.00
2022-10-08T06:52:04.661Z,309.00
2022-10-08T06:53:04.654Z,306.00
2022-10-08T06:54:07.953Z,304.00
2022-10-08T06:55:08.715Z,302.00
2022-10-08T06:56:04.642Z,302.00
2022-10-08T06:57:04.633Z,305.00
2022-10-08T06:58:04.604Z,310.00
2022-10-08T06:59:04.606Z,315.00
2022-10-08T07:00:04.646Z,320.00
2022-10-08T07:01:04.630Z,318.00
2022-10-08T07:02:04.630Z,320.00
2022-10-08T07:03:04.541Z,318.00
2022-10-08T07:04:04.541Z,318.00
2022-10-08T07:05:04.551Z,318.00
2022-10-08T07:06:04.515Z,319.00
2022-10-08T07:07:04.520Z,320.00
2022-10-08T07:08:04.486Z,321.00
2022-10-08T07:09:04.473Z,323.00
2022-10-08T07:10:04.510Z,321.00
2022-10-08T07:11:04.457Z,328.00
2022-10-08T07:12:04.478Z,331.00
2022-10-08T07:13:04.429Z,336.00
2022-10-08T07:14:04.442Z,343.00
2022-10-08T07:15:04.412Z,350.00
2022-10-08T07:16:04.448Z,357.00
2022-10-08T07:17:04.390Z,361.00
2022-10-08T07:18:04.399Z,362.00
2022-10-08T07:19:04.368Z,360.00
2022-10-08T07:20:04.373Z,353.00
2022-10-08T07:21:04.357Z,350.00
2022-10-08T07:22:04.360Z,346.00
2022-10-08T07:23:04.341Z,343.00
2022-10-08T07:24:04.345Z,345.00
2022-10-08T07:25:04.302Z,345.00
2022-10-08T07:26:04.308Z,346.00
2022-10-08T07:27:04.287Z,347.00
2022-10-08T07:28:04.318Z,349.00
2022-10-08T07:29:04.264Z,351.00
2022-10-08T07:30:04.272Z,354.00
2022-10-08T07:31:04.302Z,358.00
2022-10-08T07:32:04.237Z,364.00
2022-10-08T07:33:04.220Z,365.00
2022-10-08T07:34:04.223Z,371.00
2022-10-08T07:35:04.200Z,374.00
2022-10-08T07:36:04.207Z,383.00
2022-10-08T07:37:04.196Z,394.00
2022-10-08T07:38:04.170Z,405.00
2022-10-08T07:39:04.164Z,408.00
2022-10-08T07:40:04.146Z,407.00
2022-10-08T07:41:04.141Z,402.00
2022-10-08T07:42:04.161Z,400.00
2022-10-08T07:43:04.123Z,404.00
2022-10-08T07:44:04.108Z,414.00
2022-10-08T07:45:04.093Z,425.00
2022-10-08T07:46:04.112Z,435.00
2022-10-08T07:47:04.096Z,434.00
2022-10-08T07:48:04.062Z,437.00
2022-10-08T07:49:04.053Z,438.00
2022-10-08T07:50:04.041Z,447.00
2022-10-08T07:51:04.029Z,443.00
2022-10-08T07:52:04.025Z,447.00
2022-10-08T07:53:04.013Z,447.00
2022-10-08T07:54:04.002Z,449.00
2022-10-08T07:55:03.990Z,450.00
2022-10-08T07:56:03.977Z,454.00
2022-10-08T07:57:03.978Z,460.00
2022-10-08T07:58:03.984Z,463.00
2022-10-08T07:59:03.949Z,468.00
2022-10-08T08:00:03.955Z,472.00
2022-10-08T08:01:04.013Z,482.00
2022-10-08T08:02:04.004Z,488.00
2022-10-08T08:03:03.905Z,494.00
2022-10-08T08:04:03.904Z,504.00
2022-10-08T08:05:03.883Z,514.00
2022-10-08T08:06:03.874Z,531.00
2022-10-08T08:07:03.866Z,537.00
2022-10-08T08:08:03.873Z,547.00
2022-10-08T08:09:03.834Z,563.00
2022-10-08T08:10:03.827Z,563.00
2022-10-08T08:11:03.821Z,557.00
2022-10-08T08:12:03.816Z,554.00
2022-10-08T08:13:03.815Z,565.00
2022-10-08T08:14:03.817Z,589.00
2022-10-08T08:15:03.801Z,611.00
2022-10-08T08:16:03.867Z,636.00
2022-10-08T08:17:03.755Z,677.00
2022-10-08T08:18:03.744Z,718.00
2022-10-08T08:19:03.776Z,760.00
2022-10-08T08:20:03.727Z,826.00
2022-10-08T08:21:03.716Z,839.00
2022-10-08T08:22:03.733Z,863.00
2022-10-08T08:23:03.783Z,944.00
2022-10-08T08:24:03.703Z,1023.00
2022-10-08T08:25:03.669Z,1008.00
2022-10-08T08:26:03.662Z,1060.00
2022-10-08T08:27:03.687Z,1220.00
2022-10-08T08:28:03.715Z,1641.00
2022-10-08T08:29:03.620Z,1655.00
2022-10-08T08:30:03.622Z,1537.00
2022-10-08T08:31:03.756Z,1354.00
2022-10-08T08:32:03.670Z,1115.00
2022-10-08T08:33:03.702Z,988.00
2022-10-08T08:34:03.576Z,1057.00
2022-10-08T08:35:03.595Z,1157.00
2022-10-08T08:36:03.555Z,1097.00
2022-10-08T08:37:03.553Z,1159.00
2022-10-08T08:38:03.551Z,1150.00
2022-10-08T08:39:03.550Z,1516.00
2022-10-08T08:40:03.514Z,1552.00
2022-10-08T08:41:03.501Z,1640.00
2022-10-08T08:42:03.482Z,2253.00
2022-10-08T08:43:03.529Z,2286.00
2022-10-08T08:44:03.468Z,1982.00
2022-10-08T08:45:03.473Z,1848.00
2022-10-08T08:46:03.480Z,1951.00
2022-10-08T08:47:03.427Z,2121.00
2022-10-08T08:48:03.420Z,1985.00
2022-10-08T08:49:03.441Z,1866.00
2022-10-08T08:50:03.425Z,1641.00
2022-10-08T08:51:03.387Z,1482.00
2022-10-08T08:52:03.380Z,1714.00
2022-10-08T08:53:03.380Z,1770.00
2022-10-08T08:54:03.364Z,1984.00
2022-10-08T08:55:03.389Z,1640.00
2022-10-08T08:56:03.355Z,1502.00
2022-10-08T08:57:03.333Z,1709.00
2022-10-08T08:58:04.359Z,1849.00
2022-10-08T08:59:03.297Z,1666.00
2022-10-08T09:00:03.297Z,1294.00
2022-10-08T09:01:03.345Z,1426.00
2022-10-08T09:02:03.316Z,1687.00
2022-10-08T09:03:03.281Z,1681.00
2022-10-08T09:04:03.246Z,1784.00
2022-10-08T09:05:03.317Z,1730.00
2022-10-08T09:06:03.286Z,1619.00
2022-10-08T09:07:03.208Z,2026.00
2022-10-08T09:08:03.367Z,2024.00
2022-10-08T09:09:03.240Z,1831.00
2022-10-08T09:10:03.188Z,1762.00
2022-10-08T09:11:03.188Z,1799.00
2022-10-08T09:12:03.318Z,1922.00
2022-10-08T09:13:03.177Z,2003.00
2022-10-08T09:14:03.144Z,2182.00
2022-10-08T09:15:03.137Z,2206.00
2022-10-08T09:16:03.131Z,2192.00
2022-10-08T09:17:03.173Z,2260.00
2022-10-08T09:18:03.098Z,2250.00
2022-10-08T09:19:03.107Z,2098.00
2022-10-08T09:20:03.073Z,2103.00
2022-10-08T09:21:03.075Z,2019.00
2022-10-08T09:22:03.059Z,2109.00
2022-10-08T09:23:03.042Z,2003.00
2022-10-08T09:24:03.048Z,1976.00
2022-10-08T09:25:03.057Z,1842.00
2022-10-08T09:26:03.021Z,1847.00
2022-10-08T09:27:03.021Z,2044.00
2022-10-08T09:28:03.042Z,1911.00
2022-10-08T09:29:02.984Z,1934.00
2022-10-08T09:30:02.989Z,1610.00
2022-10-08T09:31:08.053Z,1843.00
2022-10-08T09:32:02.954Z,2196.00
2022-10-08T09:33:02.965Z,1694.00
2022-10-08T09:34:02.924Z,1719.00
2022-10-08T09:35:02.915Z,1806.00
2022-10-08T09:36:02.925Z,2366.00
2022-10-08T09:37:02.900Z,2118.00
2022-10-08T09:38:05.838Z,1476.00
2022-10-08T09:39:02.878Z,1647.00
2022-10-08T09:40:02.860Z,1667.00
2022-10-08T09:41:02.912Z,1682.00
2022-10-08T09:42:02.843Z,2175.00
2022-10-08T09:43:02.830Z,2354.00
2022-10-08T09:44:02.816Z,2241.00
2022-10-08T09:45:02.818Z,1923.00
2022-10-08T09:46:02.850Z,1932.00
2022-10-08T09:47:02.804Z,1834.00
2022-10-08T09:48:02.773Z,2380.00
2022-10-08T09:49:02.773Z,2623.00
2022-10-08T09:50:02.772Z,2026.00
2022-10-08T09:51:02.742Z,2023.00
2022-10-08T09:52:02.825Z,2231.00
2022-10-08T09:53:02.757Z,2411.00
2022-10-08T09:54:02.716Z,2071.00
2022-10-08T09:55:02.774Z,2097.00
2022-10-08T09:56:02.695Z,2273.00
2022-10-08T09:57:02.691Z,2410.00
2022-10-08T09:58:02.703Z,1962.00
2022-10-08T09:59:02.710Z,2066.00
2022-10-08T10:00:02.653Z,2144.00
2022-10-08T10:01:02.676Z,2170.00
2022-10-08T10:02:02.667Z,2359.00
2022-10-08T10:03:02.683Z,2286.00
2022-10-08T10:04:02.719Z,2181.00
2022-10-08T10:05:02.624Z,2121.00
2022-10-08T10:06:02.589Z,2346.00
2022-10-08T10:07:02.584Z,2383.00
2022-10-08T10:08:02.564Z,2434.00
2022-10-08T10:09:02.560Z,2600.00
2022-10-08T10:10:02.545Z,2594.00
2022-10-08T10:11:02.545Z,2222.00
2022-10-08T10:12:02.523Z,2620.00
2022-10-08T10:13:02.518Z,2806.00
2022-10-08T10:14:02.507Z,2776.00
2022-10-08T10:15:02.520Z,2777.00
2022-10-08T10:16:02.478Z,2850.00
2022-10-08T10:17:02.543Z,2885.00
2022-10-08T10:18:02.470Z,2670.00
2022-10-08T10:19:02.452Z,2735.00
2022-10-08T10:20:02.463Z,2816.00
2022-10-08T10:21:02.448Z,2790.00
2022-10-08T10:22:02.421Z,2228.00
2022-10-08T10:23:02.403Z,2380.00
2022-10-08T10:24:02.389Z,1824.00
2022-10-08T10:25:02.383Z,1868.00
2022-10-08T10:26:06.346Z,2541.00
2022-10-08T10:27:02.402Z,2945.00
2022-10-08T10:28:02.371Z,2780.00
2022-10-08T10:29:02.361Z,2914.00
2022-10-08T10:30:02.345Z,2866.00
2022-10-08T10:31:02.428Z,2562.00
2022-10-08T10:32:02.334Z,2786.00
2022-10-08T10:33:02.313Z,2853.00
2022-10-08T10:34:02.284Z,2840.00
2022-10-08T10:35:02.281Z,2522.00
2022-10-08T10:36:02.267Z,2551.00
2022-10-08T10:37:02.275Z,2844.00
2022-10-08T10:38:02.247Z,2799.00
2022-10-08T10:39:02.234Z,2613.00
2022-10-08T10:40:02.258Z,2489.00
2022-10-08T10:41:02.223Z,2351.00
2022-10-08T10:42:02.254Z,2179.00
2022-10-08T10:43:02.193Z,2676.00
2022-10-08T10:44:02.183Z,2736.00
2022-10-08T10:45:02.167Z,2794.00
2022-10-08T10:46:02.193Z,2096.00
2022-10-08T10:47:02.159Z,2058.00
2022-10-08T10:48:02.214Z,2573.00
2022-10-08T10:49:02.127Z,2270.00
2022-10-08T10:50:02.154Z,1704.00
2022-10-08T10:51:02.114Z,2304.00
2022-10-08T10:52:02.100Z,2489.00
2022-10-08T10:53:02.088Z,2156.00
2022-10-08T10:54:02.097Z,1961.00
2022-10-08T10:55:02.116Z,2435.00
2022-10-08T10:56:02.058Z,2765.00
2022-10-08T10:57:02.035Z,2847.00
2022-10-08T10:58:02.027Z,2880.00
2022-10-08T10:59:02.021Z,2846.00
2022-10-08T11:00:02.043Z,3027.00
2022-10-08T11:01:02.143Z,3113.00
2022-10-08T11:02:01.988Z,2865.00
2022-10-08T11:03:02.107Z,2681.00
2022-10-08T11:04:01.980Z,2686.00
2022-10-08T11:05:02.364Z,2552.00
2022-10-08T11:06:01.945Z,2580.00
2022-10-08T11:07:01.933Z,2442.00
2022-10-08T11:08:01.924Z,2654.00
2022-10-08T11:09:01.922Z,2041.00
2022-10-08T11:10:01.899Z,2265.00
2022-10-08T11:11:01.919Z,1972.00
2022-10-08T11:12:01.873Z,2343.00
2022-10-08T11:13:01.866Z,2699.00
2022-10-08T11:14:01.861Z,2666.00
2022-10-08T11:15:01.857Z,2573.00
2022-10-08T11:16:01.921Z,2574.00
2022-10-08T11:17:01.840Z,2486.00
2022-10-08T11:18:07.828Z,2221.00
2022-10-08T11:19:01.815Z,2328.00
2022-10-08T11:20:01.794Z,3223.00
2022-10-08T11:21:01.789Z,3092.00
2022-10-08T11:22:01.790Z,3118.00
2022-10-08T11:23:01.803Z,3098.00
2022-10-08T11:24:01.756Z,2971.00
2022-10-08T11:25:01.761Z,3127.00
2022-10-08T11:27:01.727Z,3163.00
2022-10-08T11:28:01.773Z,2888.00
2022-10-08T11:29:01.821Z,3210.00
2022-10-08T11:30:01.687Z,2720.00
2022-10-08T11:31:01.744Z,2640.00
2022-10-08T11:32:01.666Z,2941.00
2022-10-08T11:33:01.678Z,2695.00
2022-10-08T11:34:01.650Z,1975.00
2022-10-08T11:35:01.658Z,2286.00
2022-10-08T11:36:01.628Z,2772.00
2022-10-08T11:37:01.638Z,3120.00
2022-10-08T11:38:01.607Z,2877.00
2022-10-08T11:39:01.603Z,2807.00
2022-10-08T11:40:01.648Z,3045.00
2022-10-08T11:41:01.570Z,3144.00
2022-10-08T11:42:01.564Z,2723.00
2022-10-08T11:43:01.578Z,2584.00
2022-10-08T11:44:01.546Z,2559.00
2022-10-08T11:45:01.542Z,2130.00
2022-10-08T11:46:01.560Z,1560.00
2022-10-08T11:47:01.515Z,1676.00
2022-10-08T11:48:01.496Z,2060.00
2022-10-08T11:49:01.509Z,1823.00
2022-10-08T11:50:01.475Z,2564.00
2022-10-08T11:51:01.490Z,2505.00
2022-10-08T11:52:01.459Z,1917.00
2022-10-08T11:53:01.444Z,2330.00
2022-10-08T11:54:01.503Z,2121.00
2022-10-08T11:55:01.423Z,1571.00
2022-10-08T11:56:01.410Z,2514.00
2022-10-08T11:57:01.478Z,2998.00
2022-10-08T11:58:09.337Z,3140.00
2022-10-08T11:59:01.380Z,2970.00
2022-10-08T12:00:07.740Z,2135.00
2022-10-08T12:01:01.362Z,2762.00
2022-10-08T12:02:01.432Z,2080.00
2022-10-08T12:03:01.504Z,2196.00
2022-10-08T12:04:01.377Z,2180.00
2022-10-08T12:05:01.322Z,2574.00
2022-10-08T12:06:01.301Z,1590.00
2022-10-08T12:07:01.298Z,2411.00
2022-10-08T12:08:01.334Z,2433.00
2022-10-08T12:09:01.299Z,3326.00
2022-10-08T12:10:01.258Z,1929.00
2022-10-08T12:11:01.254Z,2718.00
2022-10-08T12:12:01.237Z,3390.00
2022-10-08T12:13:01.242Z,3280.00
2022-10-08T12:14:01.225Z,2872.00
2022-10-08T12:15:01.244Z,2773.00
2022-10-08T12:16:01.237Z,2295.00
2022-10-08T12:17:01.196Z,2532.00
2022-10-08T12:18:01.185Z,2719.00
2022-10-08T12:19:01.163Z,2156.00
2022-10-08T12:20:01.181Z,1977.00
2022-10-08T12:21:01.152Z,1989.00
2022-10-08T12:22:01.131Z,1792.00
2022-10-08T12:23:01.122Z,2276.00
2022-10-08T12:24:07.128Z,2745.00
2022-10-08T12:25:01.104Z,2542.00
2022-10-08T12:26:01.108Z,2045.00
2022-10-08T12:27:01.104Z,1632.00
2022-10-08T12:28:01.154Z,2218.00
2022-10-08T12:29:01.059Z,2212.00
2022-10-08T12:30:01.059Z,1902.00
2022-10-08T12:31:01.105Z,2252.00
2022-10-08T12:32:07.066Z,2104.00
2022-10-08T12:33:07.034Z,2014.00
2022-10-08T12:34:01.003Z,2400.00
2022-10-08T12:35:01.013Z,1792.00
2022-10-08T12:36:01.031Z,1897.00
2022-10-08T12:37:06.994Z,2097.00
2022-10-08T12:38:00.968Z,2050.00
2022-10-08T12:39:00.952Z,1867.00
2022-10-08T12:40:00.939Z,1846.00
2022-10-08T12:41:00.931Z,2479.00
2022-10-08T12:42:00.952Z,2393.00
2022-10-08T12:43:00.910Z,2003.00
2022-10-08T12:44:00.901Z,1942.00
2022-10-08T12:45:00.893Z,1729.00
2022-10-08T12:46:00.877Z,1558.00
2022-10-08T12:47:00.975Z,1657.00
2022-10-08T12:48:01.458Z,2307.00
2022-10-08T12:49:00.855Z,2235.00
2022-10-08T12:50:00.840Z,1671.00
2022-10-08T12:51:00.824Z,1946.00
2022-10-08T12:52:00.805Z,1722.00
2022-10-08T12:53:00.819Z,1272.00
2022-10-08T12:54:00.803Z,1335.00
2022-10-08T12:55:00.790Z,2021.00
2022-10-08T12:56:00.786Z,2621.00
2022-10-08T12:57:00.763Z,2370.00
2022-10-08T12:58:00.781Z,2888.00
2022-10-08T12:59:00.745Z,2833.00
2022-10-08T13:00:00.722Z,2444.00
2022-10-08T13:01:00.779Z,2419.00
2022-10-08T13:02:00.737Z,2061.00
2022-10-08T13:03:00.727Z,1587.00
2022-10-08T13:04:00.707Z,2423.00
2022-10-08T13:05:00.702Z,2765.00
2022-10-08T13:06:00.683Z,3373.00
2022-10-08T13:07:00.656Z,2855.00
2022-10-08T13:08:00.642Z,2828.00
2022-10-08T13:09:00.645Z,2729.00
2022-10-08T13:10:00.700Z,2131.00
2022-10-08T13:11:00.604Z,2510.00
2022-10-08T13:12:03.422Z,1644.00
2022-10-08T13:13:00.592Z,2136.00
2022-10-08T13:14:00.586Z,2842.00
2022-10-08T13:15:00.633Z,2348.00
2022-10-08T13:16:00.617Z,1589.00
2022-10-08T13:17:00.584Z,2630.00
2022-10-08T13:18:00.536Z,1584.00
2022-10-08T13:19:00.524Z,2397.00
2022-10-08T13:20:00.523Z,2423.00
2022-10-08T13:21:00.517Z,2342.00
2022-10-08T13:22:00.500Z,3580.00
2022-10-08T13:23:00.489Z,2427.00
2022-10-08T13:24:00.471Z,2641.00
2022-10-08T13:25:00.456Z,2507.00
2022-10-08T13:26:00.463Z,2758.00
2022-10-08T13:27:00.518Z,2154.00
2022-10-08T13:28:00.493Z,1906.00
2022-10-08T13:29:01.977Z,1848.00
2022-10-08T13:30:00.410Z,1686.00
2022-10-08T13:31:00.433Z,1693.00
2022-10-08T13:32:00.385Z,1678.00
2022-10-08T13:33:00.419Z,1668.00
2022-10-08T13:34:00.368Z,1676.00
2022-10-08T13:35:00.369Z,1659.00
2022-10-08T13:36:00.342Z,1673.00
2022-10-08T13:37:00.332Z,1677.00
2022-10-08T13:38:00.336Z,1701.00
2022-10-08T13:39:00.325Z,1698.00
2022-10-08T13:40:00.330Z,1696.00
2022-10-08T13:41:00.309Z,1684.00
2022-10-08T13:42:00.288Z,1706.00
2022-10-08T13:43:00.268Z,1697.00
2022-10-08T13:44:00.277Z,1706.00
2022-10-08T13:45:00.294Z,1705.00
2022-10-08T13:46:00.242Z,1704.00
2022-10-08T13:47:03.747Z,1665.00
2022-10-08T13:48:00.236Z,1728.00
2022-10-08T13:49:00.208Z,1758.00
2022-10-08T13:50:00.227Z,1726.00
2022-10-08T13:51:00.211Z,1730.00
2022-10-08T13:52:00.171Z,1760.00
2022-10-08T13:53:00.189Z,1763.00
2022-10-08T13:54:00.155Z,1744.00
2022-10-08T13:55:00.163Z,1722.00
2022-10-08T13:56:00.135Z,1777.00
2022-10-08T13:57:00.147Z,1825.00
2022-10-08T13:58:00.114Z,1781.00
2022-10-08T13:59:00.097Z,1759.00
2022-10-08T14:00:00.131Z,1740.00
2022-10-08T14:01:00.127Z,1746.00
2022-10-08T14:02:00.191Z,1732.00
2022-10-08T14:03:00.082Z,1867.00
2022-10-08T14:04:00.065Z,1745.00
2022-10-08T14:05:00.039Z,1739.00
2022-10-08T14:06:00.026Z,1713.00
2022-10-08T14:07:00.004Z,1726.00
2022-10-08T14:08:00.002Z,1745.00
2022-10-08T14:09:00.028Z,1692.00
2022-10-08T14:10:00.007Z,1672.00
2022-10-08T14:10:59.971Z,1558.00
2022-10-08T14:11:59.957Z,291.00
2022-10-08T14:12:59.945Z,1529.00
2022-10-08T14:13:59.941Z,694.00
2022-10-08T14:14:59.921Z,1297.00
2022-10-08T14:15:59.983Z,984.00
2022-10-08T14:16:59.930Z,431.00
2022-10-08T14:17:59.905Z,1486.00
2022-10-08T14:19:02.448Z,940.00
2022-10-08T14:19:59.877Z,304.00
2022-10-08T14:20:59.878Z,1740.00
2022-10-08T14:21:59.851Z,1717.00
2022-10-08T14:22:59.831Z,1907.00
2022-10-08T14:23:59.832Z,1931.00
2022-10-08T14:24:59.822Z,1786.00
2022-10-08T14:25:59.824Z,1730.00
2022-10-08T14:26:59.818Z,1794.00
2022-10-08T14:27:59.786Z,2329.00
2022-10-08T14:28:59.777Z,900.00
2022-10-08T14:29:59.775Z,2195.00
2022-10-08T14:30:59.770Z,2789.00
2022-10-08T14:31:59.773Z,1489.00
2022-10-08T14:32:59.728Z,1709.00
2022-10-08T14:33:59.732Z,2310.00
2022-10-08T14:34:59.711Z,1715.00
2022-10-08T14:35:59.699Z,2507.00
2022-10-08T14:36:59.690Z,2467.00
2022-10-08T14:37:59.706Z,3027.00
2022-10-08T14:38:59.662Z,2361.00
2022-10-08T14:39:59.657Z,2006.00
2022-10-08T14:40:59.653Z,1625.00
2022-10-08T14:41:59.640Z,1163.00
2022-10-08T14:42:59.624Z,1825.00
2022-10-08T14:43:59.642Z,1004.00
2022-10-08T14:44:59.601Z,1709.00
2022-10-08T14:45:59.680Z,1268.00
2022-10-08T14:46:59.585Z,1170.00
2022-10-08T14:47:59.583Z,1184.00
2022-10-08T14:48:59.579Z,1794.00
2022-10-08T14:49:59.576Z,1834.00
2022-10-08T14:51:00.215Z,1899.00
2022-10-08T14:51:59.527Z,1837.00
2022-10-08T14:52:59.522Z,1198.00
2022-10-08T14:53:59.513Z,493.00
2022-10-08T14:54:59.496Z,1883.00
2022-10-08T14:56:11.654Z,1957.00
2022-10-08T14:56:59.488Z,1677.00
2022-10-08T14:57:59.497Z,1560.00
2022-10-08T14:58:59.456Z,1513.00
2022-10-08T14:59:59.448Z,1523.00
2022-10-08T15:00:59.439Z,1489.00
2022-10-08T15:01:59.499Z,1504.00
2022-10-08T15:02:59.407Z,1544.00
2022-10-08T15:03:59.555Z,1540.00
2022-10-08T15:04:59.390Z,1547.00
2022-10-08T15:05:59.386Z,1525.00
2022-10-08T15:06:59.373Z,1515.00
2022-10-08T15:07:59.381Z,1520.00
2022-10-08T15:08:59.348Z,1527.00
2022-10-08T15:09:59.334Z,1529.00
2022-10-08T15:10:59.356Z,1561.00
2022-10-08T15:11:59.325Z,1537.00
2022-10-08T15:12:59.303Z,1517.00
2022-10-08T15:13:59.345Z,1514.00
2022-10-08T15:14:59.297Z,1513.00
2022-10-08T15:15:59.371Z,1475.00
2022-10-08T15:16:59.264Z,1450.00
2022-10-08T15:17:59.251Z,1431.00
2022-10-08T15:18:59.242Z,1425.00
2022-10-08T15:19:59.229Z,1431.00
2022-10-08T15:20:59.243Z,1415.00
2022-10-08T15:21:59.211Z,1448.00
2022-10-08T15:22:59.221Z,1455.00
2022-10-08T15:23:59.193Z,1387.00
2022-10-08T15:24:59.198Z,1358.00
2022-10-08T15:25:59.207Z,1354.00
2022-10-08T15:26:59.156Z,1330.00
2022-10-08T15:27:59.169Z,1330.00
2022-10-08T15:28:59.138Z,1309.00
2022-10-08T15:29:59.149Z,1290.00
2022-10-08T15:30:59.116Z,1268.00
2022-10-08T15:31:59.170Z,1251.00
2022-10-08T15:32:59.103Z,1234.00
2022-10-08T15:33:59.080Z,1215.00
2022-10-08T15:34:59.065Z,1201.00
2022-10-08T15:35:59.092Z,1195.00
2022-10-08T15:36:59.049Z,1174.00
2022-10-08T15:37:59.050Z,1168.00
2022-10-08T15:38:59.024Z,1157.00
2022-10-08T15:39:59.034Z,1143.00
2022-10-08T15:40:59.007Z,1120.00
2022-10-08T15:41:59.007Z,1107.00
2022-10-08T15:42:58.978Z,1080.00
2022-10-08T15:43:58.976Z,1072.00
2022-10-08T15:44:58.958Z,1043.00
2022-10-08T15:45:59.015Z,1009.00
2022-10-08T15:46:59.723Z,1054.00
2022-10-08T15:47:58.939Z,912.00
2022-10-08T15:48:58.925Z,977.00
2022-10-08T15:49:58.917Z,1095.00
2022-10-08T15:50:58.897Z,905.00
2022-10-08T15:51:58.900Z,952.00
2022-10-08T15:52:58.872Z,1407.00
2022-10-08T15:53:58.865Z,1004.00
2022-10-08T15:54:58.859Z,810.00
2022-10-08T15:55:58.845Z,680.00
2022-10-08T15:56:58.861Z,470.00
2022-10-08T15:57:58.820Z,482.00
2022-10-08T15:58:58.824Z,538.00
2022-10-08T15:59:58.812Z,551.00
2022-10-08T16:00:58.842Z,588.00
2022-10-08T16:01:58.826Z,658.00
2022-10-08T16:02:58.828Z,718.00
2022-10-08T16:03:58.887Z,644.00
2022-10-08T16:04:58.747Z,523.00
2022-10-08T16:05:58.744Z,438.00
2022-10-08T16:06:58.727Z,384.00
2022-10-08T16:07:58.731Z,421.00
2022-10-08T16:08:58.727Z,464.00
2022-10-08T16:09:58.703Z,484.00
2022-10-08T16:10:58.688Z,367.00
2022-10-08T16:11:58.687Z,382.00
2022-10-08T16:12:58.662Z,449.00